Time;durP1;ratioP1;P1;durP2;ratioP2;P2;SDS_P1;SDS_P2;PMS_P1;PMS_P2;Temp;Humidity;BMP_temperature;BMP_pressure;BME280_temperature;BME280_humidity;BME280_pressure;Samples;Min_cycle;Max_cycle;Signal;HPM_P1;HPM_P2
2022/04/21 00:02:17;;;;;;;10.45;5.30;;;;;;;11.24;53.99;101180.69;5013491;28;20060;-73
2022/04/21 00:04:42;;;;;;;9.25;5.60;;;;;;;11.22;53.56;101161.94;5015295;28;20030;-72
2022/04/21 00:07:08;;;;;;;9.25;5.30;;;;;;;11.25;53.65;101164.19;5026645;28;20461;-71
2022/04/21 00:09:33;;;;;;;7.80;5.68;;;;;;;11.26;53.66;101165.00;5035081;28;20041;-72
2022/04/21 00:11:58;;;;;;;8.50;5.32;;;;;;;11.20;54.20;101160.50;5035721;28;20047;-73
2022/04/21 00:14:23;;;;;;;7.88;5.13;;;;;;;11.22;54.13;101161.09;5035384;28;20030;-73
2022/04/21 00:16:49;;;;;;;10.98;5.82;;;;;;;11.16;53.58;101160.13;5026288;28;20042;-72
2022/04/21 00:19:14;;;;;;;11.48;5.38;;;;;;;11.12;54.51;101167.84;5015486;28;20440;-72
2022/04/21 00:24:23;;;;;;;8.80;5.82;;;;;;;11.04;54.45;101165.41;5015218;28;20120;-73
2022/04/21 00:26:48;;;;;;;9.10;5.72;;;;;;;11.05;55.12;101161.66;5022919;28;20794;-73
2022/04/21 00:29:14;;;;;;;7.85;5.60;;;;;;;11.02;54.32;101167.53;5034817;28;20037;-72
2022/04/21 00:31:39;;;;;;;7.15;5.38;;;;;;;11.00;54.75;101164.19;5034610;28;20552;-73
2022/04/21 00:34:05;;;;;;;8.18;5.15;;;;;;;10.96;54.96;101161.09;5034924;28;20025;-71
2022/04/21 00:36:30;;;;;;;7.15;5.30;;;;;;;10.91;55.40;101160.91;5029415;28;20108;-72
2022/04/21 00:38:55;;;;;;;8.75;5.30;;;;;;;10.87;54.62;101159.72;5015324;28;20072;-72
2022/04/21 00:41:21;;;;;;;9.20;5.70;;;;;;;10.87;55.61;101162.41;5014839;28;20030;-71
2022/04/21 00:43:46;;;;;;;10.07;5.68;;;;;;;10.81;54.78;101166.81;5014598;28;20417;-72
2022/04/21 00:46:19;;;;;;;8.93;6.13;;;;;;;10.82;55.00;101160.38;5017293;28;20028;-72
2022/04/21 00:48:45;;;;;;;10.63;5.75;;;;;;;10.80;55.67;101164.34;5034572;28;20072;-71
2022/04/21 00:51:11;;;;;;;7.55;5.55;;;;;;;10.81;55.21;101152.47;5034979;28;20040;-73
2022/04/21 00:53:40;;;;;;;8.63;5.30;;;;;;;10.77;55.97;101159.38;5034226;28;20021;-72
2022/04/21 00:56:06;;;;;;;6.45;5.30;;;;;;;10.71;55.58;101150.22;5032398;28;20026;-72
2022/04/21 00:58:33;;;;;;;7.00;5.05;;;;;;;10.63;56.74;101145.09;5006242;28;20482;-73
2022/04/21 01:00:58;;;;;;;8.73;5.70;;;;;;;10.63;56.25;101148.63;4995033;28;20366;-72
2022/04/21 01:03:25;;;;;;;9.50;5.32;;;;;;;10.68;55.27;101155.25;5014345;28;20037;-72
2022/04/21 01:05:51;;;;;;;7.13;5.18;;;;;;;10.65;56.45;101140.28;5014494;28;20030;-72
2022/04/21 01:08:16;;;;;;;8.05;5.63;;;;;;;10.63;55.70;101153.22;5014994;28;20033;-71
2022/04/21 01:10:42;;;;;;;7.75;5.45;;;;;;;10.57;55.88;101148.66;5014194;28;20056;-72
2022/04/21 01:13:09;;;;;;;7.30;5.32;;;;;;;10.49;56.38;101146.22;5014573;28;20026;-73
2022/04/21 01:15:36;;;;;;;10.20;5.78;;;;;;;10.46;55.77;101152.88;5014279;28;20030;-72
2022/04/21 01:18:01;;;;;;;7.20;5.50;;;;;;;10.39;56.46;101152.91;5030929;28;20382;-71
2022/04/21 01:20:26;;;;;;;7.85;5.50;;;;;;;10.37;56.51;101157.72;5034171;28;20033;-72
2022/04/21 01:22:53;;;;;;;7.38;5.22;;;;;;;10.34;56.89;101155.47;5034019;28;20164;-73
2022/04/21 01:25:20;;;;;;;7.38;5.38;;;;;;;10.33;56.41;101151.09;5034173;28;20053;-72
2022/04/21 01:27:47;;;;;;;8.02;5.45;;;;;;;10.38;56.34;101153.97;5019267;28;20362;-72
2022/04/21 01:30:13;;;;;;;8.13;5.05;;;;;;;10.39;56.07;101147.50;5014245;28;20026;-71
2022/04/21 01:32:43;;;;;;;7.65;5.10;;;;;;;10.38;56.12;101139.63;5013981;28;20025;-72
2022/04/21 01:35:09;;;;;;;10.80;5.55;;;;;;;10.34;56.04;101143.78;5014085;28;20030;-72
2022/04/21 01:43:04;;;;;;;7.32;5.38;;;;;;;10.30;56.68;101143.38;5033814;28;20036;-72
2022/04/21 01:45:29;;;;;;;12.10;5.22;;;;;;;10.28;56.74;101145.44;5033415;28;20047;-73
2022/04/21 01:47:56;;;;;;;7.55;5.40;;;;;;;10.29;56.39;101152.53;5018104;28;20034;-72
2022/04/21 01:50:22;;;;;;;8.38;5.82;;;;;;;10.22;56.68;101141.75;4996225;28;20041;-73
2022/04/21 01:52:48;;;;;;;11.45;5.88;;;;;;;10.20;57.25;101132.19;5013560;28;20072;-73
2022/04/21 01:55:13;;;;;;;13.75;5.65;;;;;;;10.24;56.95;101144.25;5013456;28;20030;-72
2022/04/21 01:57:38;;;;;;;7.38;5.75;;;;;;;10.26;56.83;101142.13;5013416;28;20493;-72
2022/04/21 02:00:04;;;;;;;11.35;6.07;;;;;;;10.19;57.31;101136.78;5013222;28;20050;-72
2022/04/21 02:02:30;;;;;;;9.90;6.00;;;;;;;10.22;56.33;101139.03;5011164;28;20037;-73
2022/04/21 02:04:56;;;;;;;8.25;5.32;;;;;;;10.22;56.56;101140.91;4995536;28;20030;-71
2022/04/21 02:07:22;;;;;;;8.48;5.60;;;;;;;10.13;58.10;101142.19;5022712;28;20477;-72
2022/04/21 02:09:48;;;;;;;8.63;5.13;;;;;;;10.17;57.25;101132.63;5014838;28;20405;-73
2022/04/21 02:12:14;;;;;;;15.98;6.10;;;;;;;10.16;57.23;101137.19;5033246;28;20041;-73
2022/04/21 02:14:39;;;;;;;6.97;5.90;;;;;;;10.14;56.65;101141.16;5032890;28;20026;-72
2022/04/21 02:17:06;;;;;;;7.47;5.40;;;;;;;10.09;56.95;101141.81;5007777;28;20233;-73
2022/04/21 02:19:32;;;;;;;11.60;5.70;;;;;;;10.08;56.90;101140.97;5005131;28;20457;-71
2022/04/21 02:21:58;;;;;;;12.23;5.68;;;;;;;10.07;56.79;101139.31;5013206;28;20041;-73
2022/04/21 02:24:23;;;;;;;9.30;5.93;;;;;;;10.06;57.16;101140.34;4995662;28;20099;-72
2022/04/21 02:26:48;;;;;;;11.07;5.80;;;;;;;10.04;57.73;101142.44;5017627;28;20431;-73
2022/04/21 02:29:14;;;;;;;8.35;5.93;;;;;;;10.03;56.83;101143.47;5033087;28;20029;-72
2022/04/21 02:31:39;;;;;;;11.90;5.63;;;;;;;10.00;57.47;101145.78;5015462;28;20090;-80
2022/04/21 02:34:04;;;;;;;10.85;5.90;;;;;;;9.88;57.97;101140.22;4998565;28;20045;-72
2022/04/21 02:36:30;;;;;;;9.70;5.70;;;;;;;9.85;57.99;101143.34;5030427;28;20396;-68
2022/04/21 02:38:55;;;;;;;7.78;5.55;;;;;;;9.86;58.17;101137.72;5012460;28;20037;-70
2022/04/21 02:41:20;;;;;;;11.73;6.13;;;;;;;9.85;58.13;101130.66;4995378;28;20044;-73
2022/04/21 02:43:46;;;;;;;7.53;5.70;;;;;;;9.82;58.48;101143.78;5012540;28;20026;-73
2022/04/21 02:46:12;;;;;;;9.75;5.60;;;;;;;9.85;57.92;101133.34;5012913;28;20109;-72
2022/04/21 02:48:38;;;;;;;6.13;5.35;;;;;;;9.88;57.96;101129.41;5012675;28;20453;-73
2022/04/21 02:51:03;;;;;;;8.45;5.60;;;;;;;9.86;58.24;101134.22;5012627;28;20069;-73
2022/04/21 02:59:00;;;;;;;8.20;5.50;;;;;;;9.76;57.75;101140.88;5012588;28;20172;-73
2022/04/21 03:01:25;;;;;;;11.65;5.93;;;;;;;9.70;58.12;101133.59;4992999;28;20034;-73
2022/04/21 03:03:50;;;;;;;9.00;5.80;;;;;;;9.68;58.50;101135.69;5012497;28;20095;-72
2022/04/21 03:06:16;;;;;;;10.95;5.68;;;;;;;9.65;58.63;101136.13;5012711;28;20025;-73
2022/04/21 03:08:41;;;;;;;10.35;5.45;;;;;;;9.69;57.80;101131.97;5031305;28;20033;-73
2022/04/21 03:11:07;;;;;;;13.90;5.65;;;;;;;9.67;57.69;101127.81;5032620;28;20052;-72
2022/04/21 03:13:32;;;;;;;17.13;6.07;;;;;;;9.65;58.46;101133.44;5032245;28;20029;-73
2022/04/21 03:15:57;;;;;;;9.48;5.32;;;;;;;9.61;58.64;101123.25;5031913;28;20457;-73
2022/04/21 03:18:23;;;;;;;8.07;5.40;;;;;;;9.70;58.29;101130.09;5017293;28;20080;-72
2022/04/21 03:26:17;;;;;;;12.25;5.53;;;;;;;9.47;59.23;101133.28;5016653;28;20052;-73
2022/04/21 03:28:43;;;;;;;7.93;5.93;;;;;;;9.46;59.52;101132.41;5035203;28;20040;-73
2022/04/21 03:31:08;;;;;;;8.05;6.00;;;;;;;9.41;59.05;101132.22;5036319;28;20033;-73
2022/04/21 03:33:33;;;;;;;11.07;5.85;;;;;;;9.40;60.06;101133.25;5036253;28;20030;-73
2022/04/21 03:35:58;;;;;;;7.75;6.20;;;;;;;9.37;59.76;101134.50;5025113;28;20038;-72
2022/04/21 03:38:24;;;;;;;8.50;5.57;;;;;;;9.35;59.58;101124.97;5015940;28;20490;-72
2022/04/21 03:40:49;;;;;;;11.13;5.93;;;;;;;9.30;58.72;101133.69;5015911;28;20104;-73
2022/04/21 03:43:15;;;;;;;7.40;5.70;;;;;;;9.33;60.17;101133.28;5016286;28;20425;-72
2022/04/21 03:45:40;;;;;;;11.52;6.32;;;;;;;9.27;59.84;101134.13;5023568;28;20022;-73
2022/04/21 03:48:05;;;;;;;11.52;6.03;;;;;;;9.29;60.09;101142.84;5035678;28;20066;-73
2022/04/21 03:50:31;;;;;;;9.15;5.28;;;;;;;9.27;60.32;101134.13;5035588;28;20108;-72
2022/04/21 03:52:57;;;;;;;11.32;6.43;;;;;;;9.20;60.06;101136.00;5035707;28;20030;-73
2022/04/21 03:55:22;;;;;;;12.38;6.22;;;;;;;9.19;60.29;101145.97;5030384;28;20369;-73
2022/04/21 03:57:47;;;;;;;10.20;6.10;;;;;;;9.16;59.62;101140.13;5015431;28;20038;-73
2022/04/21 04:00:13;;;;;;;10.93;6.00;;;;;;;9.16;59.75;101140.13;5015602;28;20026;-73
2022/04/21 04:02:38;;;;;;;8.18;6.50;;;;;;;9.16;59.72;101143.69;4995948;28;20393;-73
2022/04/21 04:05:04;;;;;;;9.55;6.25;;;;;;;9.11;60.50;101148.03;5017686;28;20030;-73
2022/04/21 04:12:58;;;;;;;8.85;5.97;;;;;;;9.09;59.06;101142.84;5035074;28;20133;-73
2022/04/21 04:15:23;;;;;;;8.05;5.95;;;;;;;9.10;59.10;101143.69;5030422;28;20054;-73
2022/04/21 04:17:48;;;;;;;9.30;5.88;;;;;;;9.07;59.53;101136.81;4997796;28;20061;-72
2022/04/21 04:20:14;;;;;;;12.85;6.13;;;;;;;9.08;59.93;101138.47;5015532;28;20030;-73
2022/04/21 04:22:40;;;;;;;11.27;6.57;;;;;;;9.03;59.70;101131.00;5015903;28;20038;-72
2022/04/21 04:25:05;;;;;;;10.30;6.57;;;;;;;9.02;60.13;101136.63;5017057;28;20030;-73
2022/04/21 04:27:31;;;;;;;11.07;6.15;;;;;;;9.00;60.30;101134.13;5035204;28;20022;-72
2022/04/21 04:29:56;;;;;;;9.05;6.20;;;;;;;8.99;59.48;101137.03;5034277;28;20033;-73
2022/04/21 04:32:22;;;;;;;9.05;6.22;;;;;;;8.98;60.45;101130.81;5035077;28;20034;-72
2022/04/21 04:34:47;;;;;;;11.52;6.65;;;;;;;8.94;60.05;101143.06;5035096;28;20374;-73
2022/04/21 04:37:12;;;;;;;11.18;6.97;;;;;;;8.91;60.00;101138.06;5015598;28;20034;-72
2022/04/21 04:39:37;;;;;;;8.63;5.82;;;;;;;8.82;60.45;101140.13;4997542;28;20026;-73
2022/04/21 04:42:20;;;;;;;10.25;6.25;;;;;;;8.84;60.20;101150.72;5014628;28;20429;-72
2022/04/21 04:44:47;;;;;;;13.43;6.60;;;;;;;8.87;60.21;101150.31;5015104;28;20026;-72
2022/04/21 04:47:13;;;;;;;10.18;6.57;;;;;;;8.87;60.05;101150.31;5033712;28;20053;-73
2022/04/21 04:49:39;;;;;;;10.07;6.65;;;;;;;8.88;60.15;101154.69;5034683;28;20393;-73
2022/04/21 04:52:05;;;;;;;10.23;6.78;;;;;;;8.85;60.25;101155.91;5034372;28;20029;-72
2022/04/21 04:54:31;;;;;;;11.48;6.70;;;;;;;8.85;60.18;101157.78;5016966;28;20421;-73
2022/04/21 04:56:57;;;;;;;8.75;6.45;;;;;;;8.90;60.11;101149.91;5017601;28;20030;-73
2022/04/21 04:59:22;;;;;;;12.57;7.10;;;;;;;8.85;61.07;101152.41;4997132;28;20033;-73
2022/04/21 05:01:48;;;;;;;12.18;6.72;;;;;;;8.86;60.14;101156.72;5012273;28;20034;-73
2022/04/21 05:04:16;;;;;;;13.43;7.07;;;;;;;8.86;60.89;101154.88;5014654;28;20030;-73
2022/04/21 05:06:47;;;;;;;17.10;6.80;;;;;;;8.87;60.62;101161.94;5028886;28;20393;-72
2022/04/21 05:09:15;;;;;;;14.68;7.00;;;;;;;8.82;60.68;101153.63;5034252;28;20034;-70
2022/04/21 05:11:42;;;;;;;11.82;7.07;;;;;;;8.82;60.80;101158.22;5034448;28;20037;-72
2022/04/21 05:14:09;;;;;;;8.50;6.63;;;;;;;8.82;60.87;101152.81;5034287;28;20216;-73
2022/04/21 05:16:36;;;;;;;14.20;6.63;;;;;;;8.86;60.77;101156.72;5020703;28;20054;-72
2022/04/21 05:19:05;;;;;;;9.05;6.10;;;;;;;8.79;60.75;101153.22;5014231;28;20488;-73
2022/04/21 05:21:32;;;;;;;8.73;6.53;;;;;;;8.85;60.43;101147.81;5014097;28;20037;-73
2022/04/21 05:23:59;;;;;;;10.30;6.47;;;;;;;8.89;60.26;101150.09;5014211;28;20030;-73
2022/04/21 05:26:26;;;;;;;14.73;7.07;;;;;;;8.92;60.34;101147.81;5025267;28;20037;-73
2022/04/21 05:28:52;;;;;;;14.80;7.35;;;;;;;8.93;60.38;101148.66;5015700;28;20037;-73
2022/04/21 05:31:18;;;;;;;10.93;6.40;;;;;;;8.90;60.00;101138.28;5016227;28;20044;-72
2022/04/21 05:33:43;;;;;;;13.13;6.65;;;;;;;8.88;60.19;101149.28;5033901;28;20029;-73
2022/04/21 05:36:09;;;;;;;9.55;6.45;;;;;;;8.93;60.75;101144.09;5006619;28;20046;-73
2022/04/21 05:38:35;;;;;;;11.40;6.55;;;;;;;8.96;60.39;101137.44;5014314;28;20048;-73
2022/04/21 05:41:03;;;;;;;10.20;6.88;;;;;;;8.97;60.37;101149.91;5012722;28;20120;-73
2022/04/21 05:43:44;;;;;;;11.15;7.03;;;;;;;8.99;60.45;101139.72;4996778;28;20088;-73
2022/04/21 05:46:12;;;;;;;15.95;7.03;;;;;;;9.05;59.84;101139.72;5022458;28;20041;-73
2022/04/21 05:48:38;;;;;;;11.57;6.72;;;;;;;9.10;60.09;101141.78;5033429;28;20484;-72
2022/04/21 05:51:12;;;;;;;11.18;7.55;;;;;;;9.12;59.76;101141.59;5033251;28;20147;-72
2022/04/21 05:53:42;;;;;;;12.02;7.22;;;;;;;9.22;59.90;101150.94;5015821;28;20029;-73
2022/04/21 05:56:08;;;;;;;17.95;7.68;;;;;;;9.22;59.92;101142.00;5024944;28;20038;-73
2022/04/21 05:58:37;;;;;;;13.50;7.57;;;;;;;9.25;59.22;101144.28;5013628;28;20446;-73
2022/04/21 06:01:07;;;;;;;11.93;7.03;;;;;;;9.30;59.22;101144.50;5011085;28;20057;-72
2022/04/21 06:03:32;;;;;;;13.80;7.20;;;;;;;9.24;59.89;101139.94;4996649;28;20033;-74
2022/04/21 06:05:58;;;;;;;13.57;6.93;;;;;;;9.31;59.69;101143.44;5020153;28;20029;-74
2022/04/21 06:08:24;;;;;;;10.40;7.13;;;;;;;9.31;59.50;101146.16;5033431;28;20042;-76
2022/04/21 06:10:50;;;;;;;12.27;7.88;;;;;;;9.33;59.22;101154.03;5033395;28;20053;-74
2022/04/21 06:13:15;;;;;;;15.45;8.52;;;;;;;9.29;58.67;101137.44;5014973;28;20033;-75
2022/04/21 06:15:41;;;;;;;16.05;7.97;;;;;;;9.31;59.04;101151.53;5014730;28;20072;-75
2022/04/21 06:18:07;;;;;;;13.90;8.57;;;;;;;9.32;59.45;101147.00;5030690;28;20498;-73
2022/04/21 06:20:34;;;;;;;14.30;7.88;;;;;;;9.40;58.76;101139.50;5040448;28;20022;-73
2022/04/21 06:22:59;;;;;;;13.60;8.55;;;;;;;9.43;59.25;101137.41;5008913;28;20392;-74
2022/04/21 06:25:24;;;;;;;11.02;7.70;;;;;;;9.54;59.26;101140.31;5017146;28;20030;-74
2022/04/21 06:27:52;;;;;;;11.20;7.20;;;;;;;9.59;58.57;101136.97;5019963;28;20057;-73
2022/04/21 06:30:18;;;;;;;11.20;7.22;;;;;;;9.64;58.54;101137.16;5032823;28;20040;-74
2022/04/21 06:32:43;;;;;;;13.35;7.65;;;;;;;9.64;58.71;101137.16;5028983;28;20026;-74
2022/04/21 06:35:08;;;;;;;13.50;7.30;;;;;;;9.67;57.70;101138.63;5032706;28;20484;-73
2022/04/21 06:37:35;;;;;;;9.23;7.00;;;;;;;9.75;58.66;101136.53;5032721;28;20057;-74
2022/04/21 06:40:00;;;;;;;10.05;6.75;;;;;;;9.83;58.35;101131.91;5032069;28;20038;-75
2022/04/21 06:42:26;;;;;;;11.95;7.10;;;;;;;9.87;57.76;101133.16;5032794;28;20040;-72
2022/04/21 06:50:19;;;;;;;10.95;6.85;;;;;;;10.11;56.97;101127.03;5019361;28;20044;-75
2022/04/21 06:52:44;;;;;;;8.80;6.95;;;;;;;10.11;58.20;101128.88;4989314;28;20042;-77
2022/04/21 06:55:09;;;;;;;10.27;7.10;;;;;;;10.13;56.80;101118.72;5017161;28;20515;-74
2022/04/21 06:57:35;;;;;;;15.23;7.38;;;;;;;10.24;57.65;101126.13;5014696;28;20029;-73
2022/04/21 07:00:01;;;;;;;11.40;6.68;;;;;;;10.29;56.42;101129.00;5032066;28;20430;-75
2022/04/21 07:02:28;;;;;;;12.07;6.93;;;;;;;10.31;56.82;101120.69;5012367;28;20034;-73
2022/04/21 07:04:54;;;;;;;13.77;6.25;;;;;;;10.39;56.59;101123.16;5012806;28;20053;-76
2022/04/21 07:07:20;;;;;;;12.43;6.65;;;;;;;10.43;56.05;101124.41;4994732;28;20111;-74
2022/04/21 07:09:45;;;;;;;13.52;6.57;;;;;;;10.51;56.49;101128.72;4978695;28;20553;-76
2022/04/21 07:12:10;;;;;;;15.95;6.90;;;;;;;10.58;57.34;101128.66;5009590;28;20040;-73
2022/04/21 07:14:36;;;;;;;12.40;7.18;;;;;;;10.68;56.41;101123.59;5014828;28;20465;-73
2022/04/21 07:17:01;;;;;;;14.93;7.15;;;;;;;10.75;57.14;101118.13;5032055;28;20045;-71
2022/04/21 07:19:27;;;;;;;8.23;6.40;;;;;;;10.82;56.59;101119.75;5032326;28;20030;-76
2022/04/21 07:21:52;;;;;;;10.02;7.03;;;;;;;10.92;57.20;101118.44;5020310;28;20052;-76
2022/04/21 07:24:17;;;;;;;10.95;7.13;;;;;;;10.93;56.68;101125.50;5012205;28;20446;-73
2022/04/21 07:26:43;;;;;;;12.93;6.80;;;;;;;11.03;56.20;101116.88;4994823;28;20564;-70
2022/04/21 07:29:08;;;;;;;13.68;7.32;;;;;;;11.09;56.59;101119.53;5012415;28;20029;-75
2022/04/21 07:31:33;;;;;;;10.57;6.57;;;;;;;11.09;54.60;101129.53;5003846;28;20128;-70
2022/04/21 07:33:58;;;;;;;9.07;5.97;;;;;;;11.11;55.04;101125.56;5031807;28;20104;-72
2022/04/21 07:36:24;;;;;;;11.93;6.43;;;;;;;11.17;55.66;101130.09;5031537;28;20030;-72
2022/04/21 07:38:49;;;;;;;10.38;7.05;;;;;;;11.23;55.54;101124.81;5032081;28;20076;-71
2022/04/21 07:41:14;;;;;;;8.95;6.20;;;;;;;11.26;54.97;101129.78;5025391;28;20045;-72
2022/04/21 07:43:42;;;;;;;13.80;6.53;;;;;;;11.33;55.13;101136.00;5003906;28;20033;-73
2022/04/21 07:46:09;;;;;;;13.45;6.80;;;;;;;11.37;54.93;101137.22;5030241;28;20474;-73
2022/04/21 07:51:18;;;;;;;9.05;6.40;;;;;;;11.49;55.53;101127.28;5030776;28;20053;-74
2022/04/21 07:53:43;;;;;;;10.77;6.40;;;;;;;11.56;54.54;101129.09;5012317;28;20041;-71
2022/04/21 07:56:09;;;;;;;12.85;6.95;;;;;;;11.59;54.94;101132.16;4994487;28;20040;-70
2022/04/21 07:58:34;;;;;;;18.15;7.13;;;;;;;11.59;54.18;101120.50;5012126;28;20029;-72
2022/04/21 08:00:59;;;;;;;12.40;6.28;;;;;;;11.64;54.32;101120.66;5009767;28;20038;-73
2022/04/21 08:03:26;;;;;;;13.38;6.63;;;;;;;11.68;54.68;101130.00;4998261;28;20037;-74
2022/04/21 08:05:51;;;;;;;9.00;6.93;;;;;;;11.75;53.90;101127.22;5023786;28;20415;-73
2022/04/21 08:08:17;;;;;;;12.32;6.22;;;;;;;11.79;53.70;101123.84;5035092;28;20117;-74
2022/04/21 08:10:42;;;;;;;15.10;7.15;;;;;;;11.85;54.36;101131.06;5031469;28;20054;-73
2022/04/21 08:13:08;;;;;;;8.65;5.82;;;;;;;11.96;53.45;101131.41;5041202;28;20215;-72
2022/04/21 08:15:35;;;;;;;8.65;5.47;;;;;;;12.03;51.71;101132.97;5031817;28;20030;-73
2022/04/21 08:18:03;;;;;;;11.50;5.65;;;;;;;12.14;52.87;101133.22;5015414;28;20033;-74
2022/04/21 08:20:30;;;;;;;15.38;6.18;;;;;;;12.23;52.87;101132.72;4998053;28;20042;-73
2022/04/21 08:22:55;;;;;;;13.10;5.88;;;;;;;12.33;53.25;101129.44;5015437;28;20025;-73
2022/04/21 08:33:36;;;;;;;12.40;5.68;;;;;;;12.56;52.25;101139.56;5035201;28;20072;-72
2022/04/21 08:36:03;;;;;;;10.65;5.60;;;;;;;12.54;52.67;101130.81;5001170;28;20053;-72
2022/04/21 08:38:30;;;;;;;14.88;6.43;;;;;;;12.63;53.66;101133.22;5015245;28;20049;-72
2022/04/21 08:40:57;;;;;;;7.47;5.82;;;;;;;12.67;53.24;101145.28;5014892;28;20025;-70
2022/04/21 08:43:24;;;;;;;7.55;5.53;;;;;;;12.65;53.21;101140.06;5014728;28;20034;-72
2022/04/21 08:45:50;;;;;;;9.13;5.50;;;;;;;12.65;53.34;101131.94;5022317;28;20037;-70
2022/04/21 08:48:21;;;;;;;9.57;5.40;;;;;;;12.67;54.01;101129.78;5034250;28;20029;-70
2022/04/21 08:50:46;;;;;;;9.43;5.70;;;;;;;12.66;52.94;101133.56;5034826;28;20151;-71
2022/04/21 08:53:15;;;;;;;10.18;5.53;;;;;;;12.68;53.18;101126.03;5021818;28;20108;-71
2022/04/21 08:55:42;;;;;;;10.82;5.20;;;;;;;12.76;53.66;101127.56;5021717;28;20034;-71
2022/04/21 08:58:07;;;;;;;9.57;5.80;;;;;;;12.82;54.13;101132.06;5034807;28;20033;-71
2022/04/21 09:00:32;;;;;;;9.07;6.07;;;;;;;12.88;53.61;101128.44;5012557;28;20030;-71
2022/04/21 09:03:05;;;;;;;7.95;5.30;;;;;;;12.97;52.89;101122.63;5014460;28;20117;-71
2022/04/21 09:05:31;;;;;;;11.20;5.72;;;;;;;13.04;53.79;101121.47;4997137;28;20034;-71
2022/04/21 09:07:57;;;;;;;6.60;4.80;;;;;;;13.09;52.89;101115.34;5025398;28;20048;-71
2022/04/21 09:10:25;;;;;;;9.80;4.88;;;;;;;13.17;52.56;101114.16;5034113;28;20053;-71
2022/04/21 09:12:55;;;;;;;13.48;4.65;;;;;;;13.25;52.03;101116.53;5027207;28;20034;-71
2022/04/21 09:15:23;;;;;;;5.05;4.20;;;;;;;13.30;51.57;101117.47;5024805;28;20029;-71
2022/04/21 09:17:51;;;;;;;4.97;4.18;;;;;;;13.37;50.72;101113.84;5023123;28;20125;-71
2022/04/21 09:20:22;;;;;;;7.97;4.60;;;;;;;13.39;51.31;101108.97;4996469;28;20030;-71
2022/04/21 09:22:52;;;;;;;12.15;5.32;;;;;;;13.42;51.17;101094.91;5022695;28;20044;-71
2022/04/21 09:25:30;;;;;;;7.60;4.40;;;;;;;13.52;50.23;101097.03;5021287;28;20035;-72
2022/04/21 09:28:04;;;;;;;5.88;3.78;;;;;;;13.56;48.90;101088.16;5024350;28;20485;-70
2022/04/21 09:30:36;;;;;;;5.05;3.55;;;;;;;13.63;48.16;101096.19;5015892;28;20033;-71
2022/04/21 09:33:01;;;;;;;5.45;4.07;;;;;;;13.71;48.89;101100.41;4998950;28;20456;-71
2022/04/21 09:35:28;;;;;;;6.22;4.10;;;;;;;13.76;48.85;101086.94;5033076;28;20113;-71
2022/04/21 09:37:58;;;;;;;5.38;3.30;;;;;;;13.83;46.81;101099.34;5015801;28;20033;-71
2022/04/21 09:40:25;;;;;;;4.03;3.50;;;;;;;13.85;47.02;101090.94;5014238;28;20025;-71
2022/04/21 09:42:59;;;;;;;5.80;3.50;;;;;;;13.98;47.81;101096.09;5033125;28;20029;-72
2022/04/21 09:48:28;;;;;;;7.00;4.95;;;;;;;14.08;48.08;101094.66;5032546;28;20127;-71
2022/04/21 09:50:57;;;;;;;7.35;3.90;;;;;;;14.09;46.62;101085.44;5033412;28;20029;-75
2022/04/21 09:53:24;;;;;;;6.95;4.15;;;;;;;14.13;47.54;101087.41;5015502;28;20025;-71
2022/04/21 09:56:10;;;;;;;8.18;4.38;;;;;;;14.18;47.58;101089.41;5033140;28;20033;-70
2022/04/21 09:58:39;;;;;;;7.85;4.13;;;;;;;14.25;46.27;101083.81;5021879;28;20112;-70
2022/04/21 10:01:05;;;;;;;4.32;3.13;;;;;;;14.30;42.61;101092.09;5031092;28;20056;-70
2022/04/21 10:03:35;;;;;;;6.00;3.58;;;;;;;14.29;43.14;101083.06;5032567;28;20643;-70
2022/04/21 10:06:01;;;;;;;5.28;3.30;;;;;;;14.32;43.40;101074.41;5033172;28;20036;-72
2022/04/21 10:08:29;;;;;;;6.03;3.72;;;;;;;14.42;43.54;101072.94;5032839;28;20083;-71
2022/04/21 10:10:55;;;;;;;4.13;3.28;;;;;;;14.57;42.77;101080.56;5033444;28;20042;-72
2022/04/21 10:13:21;;;;;;;5.57;3.03;;;;;;;14.57;40.26;101066.94;5042871;28;20472;-71
2022/04/21 10:15:47;;;;;;;3.30;3.00;;;;;;;14.57;41.39;101067.78;5036381;28;20049;-71
2022/04/21 10:18:13;;;;;;;4.20;3.00;;;;;;;14.57;40.51;101072.38;5032965;28;20104;-72
2022/04/21 10:20:41;;;;;;;5.13;3.05;;;;;;;14.72;41.68;101064.53;5032840;28;20026;-71
2022/04/21 10:23:10;;;;;;;6.55;3.50;;;;;;;14.82;41.45;101059.22;5033100;28;20040;-71
2022/04/21 10:25:38;;;;;;;4.82;3.28;;;;;;;14.87;41.42;101055.75;5033082;28;20109;-72
2022/04/21 10:28:42;;;;;;;7.72;3.28;;;;;;;14.93;41.14;101060.22;5031999;28;20064;-71
2022/04/21 10:31:33;;;;;;;5.88;2.97;;;;;;;14.95;41.58;101060.78;5032942;28;20025;-71
2022/04/21 10:34:00;;;;;;;;;;;;;;;15.01;41.48;101053.53;5033380;28;20029;-72
2022/04/21 10:36:43;;;;;;;6.22;2.90;;;;;;;15.03;40.87;101049.44;5032193;28;20284;-72
2022/04/21 10:39:30;;;;;;;6.45;3.20;;;;;;;15.14;40.21;101047.72;5032569;28;20060;-71
2022/04/21 10:42:17;;;;;;;5.43;2.83;;;;;;;15.19;38.63;101046.97;5032829;28;20108;-71
2022/04/21 10:44:50;;;;;;;4.82;2.72;;;;;;;15.26;38.20;101042.13;5036572;28;20116;-72
2022/04/21 10:47:36;;;;;;;3.28;2.58;;;;;;;15.20;38.08;101045.88;5032472;28;20040;-71
2022/04/21 10:50:12;;;;;;;5.95;2.40;;;;;;;15.31;38.02;101046.84;5032260;28;20041;-71
2022/04/21 10:57:50;;;;;;;10.07;2.33;;;;;;;15.40;37.30;101027.06;5032163;28;20043;-72
2022/04/21 11:00:30;;;;;;;8.07;2.28;;;;;;;15.47;36.42;101034.25;5032065;28;20469;-72
2022/04/21 11:03:04;;;;;;;6.57;2.33;;;;;;;15.53;37.16;101034.03;5032324;28;20030;-72
2022/04/21 11:05:38;;;;;;;2.20;2.00;;;;;;;15.63;37.87;101022.44;5031942;28;20404;-72
2022/04/21 11:08:10;;;;;;;3.95;2.20;;;;;;;15.82;37.41;101024.88;5014397;28;20047;-72
2022/04/21 11:10:38;;;;;;;2.13;1.92;;;;;;;15.86;35.93;101031.47;5032052;28;20049;-70
2022/04/21 11:13:08;;;;;;;4.28;2.15;;;;;;;15.91;35.23;101017.88;5031753;28;20036;-71
2022/04/21 11:15:53;;;;;;;3.75;2.10;;;;;;;16.05;35.85;101023.75;5031547;28;20034;-72
2022/04/21 11:18:29;;;;;;;5.10;2.20;;;;;;;16.11;35.84;101012.63;5030757;28;20473;-71
2022/04/21 11:21:23;;;;;;;5.22;2.38;;;;;;;16.23;34.85;100997.97;5031936;28;20029;-72
2022/04/21 11:23:48;;;;;;;3.88;1.98;;;;;;;16.41;34.00;101005.81;5031837;28;20041;-71
2022/04/21 11:26:14;;;;;;;3.00;1.80;;;;;;;16.48;33.63;100989.19;5031547;28;20041;-71
2022/04/21 11:28:46;;;;;;;5.88;2.28;;;;;;;16.55;32.98;101000.72;5031610;28;20042;-70
2022/04/21 11:31:13;;;;;;;6.18;2.50;;;;;;;16.66;34.63;100991.50;5032065;28;20037;-72
2022/04/21 11:33:39;;;;;;;3.75;2.10;;;;;;;16.73;34.50;100999.47;5031841;28;20042;-72
2022/04/21 11:36:06;;;;;;;6.03;2.30;;;;;;;16.73;33.15;100987.75;5032264;28;20092;-72
2022/04/21 11:38:32;;;;;;;6.38;2.13;;;;;;;16.72;32.54;101000.56;5031424;28;20083;-72
2022/04/21 11:41:05;;;;;;;3.35;2.00;;;;;;;16.80;33.17;100978.22;5023739;28;20116;-71
2022/04/21 11:43:31;;;;;;;4.78;2.55;;;;;;;16.78;33.44;100988.56;5035710;28;20500;-75
2022/04/21 11:46:01;;;;;;;4.88;2.45;;;;;;;16.81;33.25;100977.13;5035841;28;20032;-73
2022/04/21 11:48:34;;;;;;;9.27;2.33;;;;;;;16.87;34.01;100985.41;5035502;28;20469;-78
2022/04/21 11:51:00;;;;;;;5.80;2.30;;;;;;;16.96;34.47;100983.81;5036142;28;20025;-75
2022/04/21 11:53:30;;;;;;;7.97;2.40;;;;;;;17.04;32.55;100986.03;5042684;28;20037;-73
2022/04/21 11:55:58;;;;;;;2.67;2.10;;;;;;;17.13;32.00;100987.16;5017882;28;20115;-73
2022/04/21 11:58:34;;;;;;;4.75;2.28;;;;;;;17.15;32.98;100982.28;5032686;28;20431;-74
2022/04/21 12:06:40;;;;;;;6.47;2.20;;;;;;;17.48;32.37;100969.28;5035647;28;20039;-72
2022/04/21 12:09:07;;;;;;;8.68;3.10;;;;;;;17.52;33.28;100967.63;5047972;28;20075;-72
2022/04/21 12:11:33;;;;;;;7.22;2.47;;;;;;;17.52;32.93;100966.81;5055145;28;20033;-72
2022/04/21 12:13:59;;;;;;;7.45;2.53;;;;;;;17.60;32.93;100970.94;5055633;28;20041;-73
2022/04/21 12:16:49;;;;;;;4.53;2.28;;;;;;;17.52;31.92;100967.63;5055360;28;20025;-75
2022/04/21 12:19:16;;;;;;;4.72;2.30;;;;;;;17.62;32.78;100957.81;5055730;28;20060;-73
2022/04/21 12:21:43;;;;;;;5.22;2.30;;;;;;;17.64;31.38;100961.13;5055809;28;20065;-73